createdAt,value
2023-03-24T00:00:47.224Z,1.70
2023-03-24T00:01:49.792Z,1.70
2023-03-24T00:02:52.269Z,1.95
2023-03-24T00:03:54.805Z,1.77
2023-03-24T00:04:58.742Z,1.50
2023-03-24T00:06:03.580Z,1.83
2023-03-24T00:07:06.015Z,1.65
2023-03-24T00:08:08.835Z,1.67
2023-03-24T00:09:11.358Z,1.63
2023-03-24T00:10:17.964Z,1.58
2023-03-24T00:11:21.241Z,1.67
2023-03-24T00:12:24.256Z,1.67
2023-03-24T00:13:26.653Z,1.50
2023-03-24T00:14:30.706Z,1.38
2023-03-24T00:15:34.287Z,1.50
2023-03-24T00:16:38.369Z,1.80
2023-03-24T00:17:41.138Z,1.58
2023-03-24T00:18:43.574Z,1.40
2023-03-24T00:19:46.248Z,1.75
2023-03-24T00:20:49.381Z,1.40
2023-03-24T00:21:55.847Z,1.50
2023-03-24T00:22:58.969Z,1.75
2023-03-24T00:24:01.971Z,1.33
2023-03-24T00:25:04.628Z,1.67
2023-03-24T00:26:15.162Z,1.52
2023-03-24T00:27:18.628Z,1.83
2023-03-24T00:28:21.166Z,1.60
2023-03-24T00:29:27.460Z,1.65
2023-03-24T00:30:29.840Z,1.42
2023-03-24T00:31:32.484Z,1.48
2023-03-24T00:32:39.054Z,1.67
2023-03-24T00:33:42.674Z,1.67
2023-03-24T00:34:45.036Z,1.40
2023-03-24T00:35:48.417Z,1.58
2023-03-24T00:36:52.177Z,1.60
2023-03-24T00:37:54.963Z,1.30
2023-03-24T00:38:57.933Z,1.70
2023-03-24T00:40:00.836Z,1.60
2023-03-24T00:41:06.331Z,1.70
2023-03-24T00:42:09.070Z,1.60
2023-03-24T00:43:13.346Z,1.52
2023-03-24T00:44:19.733Z,1.60
2023-03-24T00:45:26.105Z,1.83
2023-03-24T00:46:29.395Z,1.60
2023-03-24T00:47:38.006Z,1.58
2023-03-24T00:48:42.065Z,1.75
2023-03-24T00:49:48.113Z,1.75
2023-03-24T00:50:51.730Z,1.50
2023-03-24T00:51:54.138Z,1.63
2023-03-24T00:52:58.133Z,1.50
2023-03-24T00:54:01.797Z,1.17
2023-03-24T00:55:06.623Z,1.70
2023-03-24T00:56:09.233Z,1.23
2023-03-24T00:57:21.584Z,1.10
2023-03-24T00:58:24.630Z,1.13
2023-03-24T00:59:29.481Z,1.25
2023-03-24T01:00:32.546Z,1.55
2023-03-24T01:01:36.523Z,1.13
2023-03-24T01:02:39.608Z,1.20
2023-03-24T01:03:48.142Z,1.52
2023-03-24T01:04:59.579Z,1.25
2023-03-24T01:06:04.898Z,1.45
2023-03-24T01:07:10.789Z,1.42
2023-03-24T01:08:14.132Z,1.45
2023-03-24T01:09:16.476Z,1.52
2023-03-24T01:10:26.021Z,1.60
2023-03-24T01:11:29.623Z,1.50
2023-03-24T01:12:36.925Z,1.60
2023-03-24T01:13:41.010Z,1.52
2023-03-24T01:14:43.529Z,1.20
2023-03-24T01:15:45.935Z,1.33
2023-03-24T01:16:48.267Z,1.70
2023-03-24T01:17:53.439Z,1.80
2023-03-24T01:18:56.182Z,1.92
2023-03-24T01:19:58.757Z,1.40
2023-03-24T01:21:01.417Z,1.80
2023-03-24T01:22:03.878Z,1.65
2023-03-24T01:23:06.894Z,1.63
2023-03-24T01:24:09.573Z,1.30
2023-03-24T01:25:18.081Z,1.70
2023-03-24T01:26:20.525Z,1.58
2023-03-24T01:27:23.058Z,1.60
2023-03-24T01:28:26.003Z,1.95
2023-03-24T01:29:28.713Z,1.58
2023-03-24T01:30:31.655Z,1.35
2023-03-24T01:31:34.519Z,1.50
2023-03-24T01:32:37.461Z,1.45
2023-03-24T01:33:39.926Z,1.40
2023-03-24T01:34:42.367Z,1.58
2023-03-24T01:35:45.420Z,1.52
2023-03-24T01:36:47.884Z,1.58
2023-03-24T01:37:50.471Z,1.48
2023-03-24T01:38:52.937Z,1.65
2023-03-24T01:39:55.498Z,1.20
2023-03-24T01:40:58.122Z,1.50
2023-03-24T01:42:00.544Z,1.80
2023-03-24T01:43:04.640Z,1.50
2023-03-24T01:44:26.129Z,1.50
2023-03-24T01:45:52.676Z,1.45
2023-03-24T01:46:57.088Z,1.25
2023-03-24T01:47:59.868Z,1.40
2023-03-24T01:49:07.646Z,1.30
2023-03-24T01:50:11.151Z,1.42
2023-03-24T01:51:19.507Z,1.25
2023-03-24T01:52:30.989Z,1.40
2023-03-24T01:53:36.377Z,1.40
2023-03-24T01:54:43.278Z,1.40
2023-03-24T01:55:48.773Z,1.30
2023-03-24T01:57:03.868Z,1.42
2023-03-24T01:58:07.328Z,1.35
2023-03-24T01:59:27.288Z,1.25
2023-03-24T02:00:50.911Z,1.40
2023-03-24T02:02:22.025Z,1.20
2023-03-24T02:03:33.897Z,1.50
2023-03-24T02:04:44.454Z,1.38
2023-03-24T02:05:49.857Z,1.30
2023-03-24T02:06:53.569Z,1.60
2023-03-24T02:08:02.065Z,1.05
2023-03-24T02:09:04.598Z,1.35
2023-03-24T02:10:10.825Z,1.30
2023-03-24T02:11:13.346Z,1.27
2023-03-24T02:12:24.720Z,1.23
2023-03-24T02:13:29.070Z,1.10
2023-03-24T02:14:32.020Z,1.20
2023-03-24T02:15:55.370Z,1.20
2023-03-24T02:17:16.214Z,1.20
2023-03-24T02:18:46.952Z,1.30
2023-03-24T02:20:10.729Z,1.17
2023-03-24T02:21:32.965Z,0.90
2023-03-24T02:22:51.748Z,1.25
2023-03-24T02:23:59.080Z,1.35
2023-03-24T02:25:18.975Z,1.25
2023-03-24T02:26:33.739Z,1.30
2023-03-24T02:28:12.980Z,1.00
2023-03-24T02:29:54.637Z,1.20
2023-03-24T02:31:08.624Z,1.08
2023-03-24T02:32:24.517Z,1.15
2023-03-24T02:33:48.294Z,1.30
2023-03-24T02:35:05.898Z,1.17
2023-03-24T02:36:26.204Z,1.25
2023-03-24T02:37:55.021Z,1.23
2023-03-24T02:39:16.257Z,1.30
2023-03-24T02:40:21.803Z,1.13
2023-03-24T02:41:24.387Z,1.30
2023-03-24T02:42:52.355Z,1.20
2023-03-24T02:44:25.837Z,1.38
2023-03-24T02:46:06.930Z,1.17
2023-03-24T02:47:37.635Z,1.10
2023-03-24T02:48:52.250Z,1.42
2023-03-24T02:50:17.690Z,1.15
2023-03-24T02:51:29.815Z,1.10
2023-03-24T02:52:34.910Z,1.25
2023-03-24T02:54:21.606Z,1.45
2023-03-24T02:55:32.992Z,1.20
2023-03-24T02:56:50.036Z,1.40
2023-03-24T02:58:42.023Z,1.30
2023-03-24T03:00:10.192Z,1.30
2023-03-24T03:01:54.232Z,1.25
2023-03-24T03:03:29.575Z,1.15
2023-03-24T03:04:38.046Z,1.20
2023-03-24T03:06:13.619Z,1.10
2023-03-24T03:07:21.841Z,1.05
2023-03-24T03:08:27.357Z,0.80
2023-03-24T03:09:30.433Z,1.10
2023-03-24T03:10:38.308Z,1.23
2023-03-24T03:11:44.184Z,1.23
2023-03-24T03:12:50.649Z,1.05
2023-03-24T03:14:20.868Z,1.05
2023-03-24T03:15:27.571Z,1.20
2023-03-24T03:16:34.691Z,1.30
2023-03-24T03:17:49.384Z,1.10
2023-03-24T03:19:01.849Z,1.20
2023-03-24T03:20:24.975Z,1.10
2023-03-24T03:21:32.923Z,1.17
2023-03-24T03:22:45.104Z,1.08
2023-03-24T03:23:56.476Z,1.30
2023-03-24T03:25:02.277Z,1.35
2023-03-24T03:26:12.283Z,1.13
2023-03-24T03:27:20.047Z,1.13
2023-03-24T03:28:25.745Z,1.45
2023-03-24T03:29:33.943Z,1.00
2023-03-24T03:30:47.250Z,1.35
2023-03-24T03:31:59.969Z,1.00
2023-03-24T03:33:10.754Z,1.10
2023-03-24T03:34:22.493Z,1.20
2023-03-24T03:35:33.172Z,1.40
2023-03-24T03:37:03.675Z,1.23
2023-03-24T03:38:40.334Z,1.08
2023-03-24T03:39:51.559Z,1.10
2023-03-24T03:42:04.305Z,1.20
2023-03-24T03:43:06.883Z,1.25
2023-03-24T03:44:09.879Z,1.20
2023-03-24T03:45:14.214Z,1.10
2023-03-24T03:46:18.235Z,0.90
2023-03-24T03:47:23.200Z,1.10
2023-03-24T03:48:27.076Z,1.02
2023-03-24T03:49:29.648Z,1.10
2023-03-24T03:50:32.665Z,1.10
2023-03-24T03:51:40.629Z,1.00
2023-03-24T03:52:44.530Z,1.15
2023-03-24T03:54:01.050Z,0.90
2023-03-24T03:55:07.300Z,0.80
2023-03-24T03:56:10.424Z,1.10
2023-03-24T03:58:50.224Z,0.80
2023-03-24T03:59:53.574Z,1.05
2023-03-24T04:00:56.299Z,0.95
2023-03-24T04:02:42.222Z,1.20
2023-03-24T04:03:51.134Z,3.47
2023-03-24T04:05:06.385Z,1.83
2023-03-24T04:06:57.507Z,1.30
2023-03-24T04:08:25.865Z,1.23
2023-03-24T04:09:44.639Z,1.20
2023-03-24T04:10:55.691Z,1.17
2023-03-24T04:12:03.920Z,1.45
2023-03-24T04:13:31.738Z,3.80
2023-03-24T04:15:09.358Z,3.05
2023-03-24T04:17:16.822Z,1.98
2023-03-24T04:19:45.653Z,1.30
2023-03-24T04:21:13.281Z,1.30
2023-03-24T04:22:18.458Z,1.38
2023-03-24T04:24:02.209Z,1.10
2023-03-24T04:25:35.022Z,0.85
2023-03-24T04:26:51.248Z,0.95
2023-03-24T04:28:07.795Z,1.00
2023-03-24T04:29:33.143Z,1.05
2023-03-24T04:30:57.432Z,71.53
2023-03-24T04:32:19.533Z,24.85
2023-03-24T04:33:48.596Z,31.57
2023-03-24T04:35:01.297Z,15.25
2023-03-24T04:36:42.379Z,25.02
2023-03-24T04:38:25.767Z,12.43
2023-03-24T04:39:45.514Z,9.20
2023-03-24T04:40:55.548Z,6.88
2023-03-24T04:42:02.436Z,5.82
2023-03-24T04:43:07.369Z,4.90
2023-03-24T04:44:11.075Z,4.43
2023-03-24T04:45:25.661Z,4.10
2023-03-24T04:46:59.418Z,3.47
2023-03-24T04:48:05.145Z,3.53
2023-03-24T04:49:27.157Z,3.33
2023-03-24T04:50:38.013Z,3.20
2023-03-24T04:51:44.504Z,2.95
2023-03-24T04:53:00.963Z,3.28
2023-03-24T04:54:04.100Z,3.03
2023-03-24T04:55:40.723Z,2.60
2023-03-24T04:56:56.759Z,2.33
2023-03-24T04:58:08.465Z,2.70
2023-03-24T04:59:12.811Z,2.97
2023-03-24T05:00:16.377Z,2.45
2023-03-24T05:01:21.434Z,2.78
2023-03-24T05:02:45.115Z,2.60
2023-03-24T05:03:54.128Z,2.70
2023-03-24T05:04:56.672Z,2.80
2023-03-24T05:06:08.121Z,3.47
2023-03-24T05:07:11.453Z,3.35
2023-03-24T05:08:16.325Z,13.02
2023-03-24T05:09:23.677Z,14.32
2023-03-24T05:10:26.040Z,11.80
2023-03-24T05:11:31.431Z,12.63
2023-03-24T05:12:39.728Z,12.48
2023-03-24T05:14:00.800Z,11.90
2023-03-24T05:15:03.955Z,11.55
2023-03-24T05:16:07.578Z,10.20
2023-03-24T05:17:15.700Z,10.02
2023-03-24T05:18:18.005Z,9.57
2023-03-24T05:19:20.722Z,8.77
2023-03-24T05:20:24.012Z,8.65
2023-03-24T05:21:27.040Z,8.48
2023-03-24T05:22:29.580Z,8.43
2023-03-24T05:23:31.882Z,7.70
2023-03-24T05:24:34.848Z,7.53
2023-03-24T05:25:37.221Z,7.63
2023-03-24T05:26:39.803Z,8.63
2023-03-24T05:27:47.943Z,7.70
2023-03-24T05:29:00.223Z,6.97
2023-03-24T05:30:05.194Z,7.47
2023-03-24T05:31:09.252Z,7.60
2023-03-24T05:32:24.580Z,7.60
2023-03-24T05:33:27.075Z,8.00
2023-03-24T05:34:29.574Z,14.07
2023-03-24T05:35:40.400Z,8.70
2023-03-24T05:36:43.355Z,8.50
2023-03-24T05:37:46.155Z,9.55
2023-03-24T05:38:48.459Z,9.65
2023-03-24T05:39:50.766Z,8.82
2023-03-24T05:41:15.951Z,8.85
2023-03-24T05:42:18.992Z,8.80
2023-03-24T05:43:21.311Z,10.00
2023-03-24T05:44:33.566Z,9.77
2023-03-24T05:45:41.302Z,9.77
2023-03-24T05:46:46.256Z,8.60
2023-03-24T05:47:48.733Z,9.20
2023-03-24T05:48:55.639Z,9.30
2023-03-24T05:50:03.607Z,10.05
2023-03-24T05:51:07.659Z,8.93
2023-03-24T05:52:11.219Z,8.77
2023-03-24T05:53:18.826Z,8.15
2023-03-24T05:54:43.114Z,8.77
2023-03-24T05:55:53.734Z,8.90
2023-03-24T05:57:16.339Z,8.85
2023-03-24T05:58:39.140Z,8.68
2023-03-24T05:59:41.822Z,8.40
2023-03-24T06:01:13.414Z,8.48
2023-03-24T06:02:16.104Z,8.43
2023-03-24T06:03:25.656Z,8.48
2023-03-24T06:04:38.163Z,8.13
2023-03-24T06:05:47.991Z,19.15
2023-03-24T06:06:51.280Z,27.52
2023-03-24T06:08:01.359Z,31.80
2023-03-24T06:09:06.852Z,32.50
2023-03-24T06:10:11.329Z,28.25
2023-03-24T06:11:20.401Z,23.75
2023-03-24T06:12:34.174Z,21.58
2023-03-24T06:13:39.368Z,16.75
2023-03-24T06:14:41.752Z,16.80
2023-03-24T06:15:49.605Z,13.77
2023-03-24T06:17:14.547Z,14.63
2023-03-24T06:18:18.448Z,13.88
2023-03-24T06:19:24.636Z,13.45
2023-03-24T06:20:36.039Z,13.55
2023-03-24T06:21:41.075Z,13.07
2023-03-24T06:22:45.623Z,13.02
2023-03-24T06:23:50.837Z,13.70
2023-03-24T06:25:00.157Z,13.00
2023-03-24T06:26:07.795Z,11.23
2023-03-24T06:27:11.730Z,25.83
2023-03-24T06:28:14.253Z,25.83
2023-03-24T06:29:18.614Z,28.33
2023-03-24T06:30:22.223Z,27.38
2023-03-24T06:31:25.392Z,22.60
2023-03-24T06:32:28.901Z,19.45
2023-03-24T06:33:31.254Z,16.70
2023-03-24T06:34:35.126Z,15.63
2023-03-24T06:35:51.852Z,14.93
2023-03-24T06:36:54.307Z,15.18
2023-03-24T06:37:56.680Z,15.13
2023-03-24T06:38:59.179Z,14.38
2023-03-24T06:40:03.348Z,15.98
2023-03-24T06:41:08.675Z,14.50
2023-03-24T06:42:11.250Z,14.38
2023-03-24T06:43:13.833Z,14.88
2023-03-24T06:44:18.351Z,13.55
2023-03-24T06:45:20.742Z,13.60
2023-03-24T06:46:24.832Z,13.07
2023-03-24T06:47:27.567Z,15.25
2023-03-24T06:48:30.128Z,13.32
2023-03-24T06:49:42.496Z,13.77
2023-03-24T06:50:44.896Z,13.73
2023-03-24T06:51:47.495Z,14.00
2023-03-24T06:52:51.993Z,13.35
2023-03-24T06:53:55.266Z,14.07
2023-03-24T06:54:59.163Z,14.07
2023-03-24T06:56:03.684Z,13.57
2023-03-24T06:57:13.730Z,13.90
2023-03-24T06:58:34.943Z,14.38
2023-03-24T06:59:42.503Z,13.80
2023-03-24T07:00:47.081Z,14.07
2023-03-24T07:02:03.361Z,13.70
2023-03-24T07:03:09.597Z,12.68
2023-03-24T07:04:14.360Z,13.35
2023-03-24T07:05:28.038Z,13.35
2023-03-24T07:06:30.811Z,12.52
2023-03-24T07:09:10.141Z,12.45
2023-03-24T07:10:14.024Z,12.88
2023-03-24T07:11:17.650Z,11.73
2023-03-24T07:12:26.192Z,11.10
2023-03-24T07:13:28.842Z,11.60
2023-03-24T07:14:39.276Z,11.98
2023-03-24T07:15:42.879Z,11.20
2023-03-24T07:16:46.453Z,11.18
2023-03-24T07:18:19.337Z,11.30
2023-03-24T07:19:28.613Z,10.82
2023-03-24T07:21:04.884Z,10.88
2023-03-24T07:22:09.789Z,10.57
2023-03-24T07:23:33.092Z,10.57
2023-03-24T07:24:39.933Z,10.60
2023-03-24T07:26:02.418Z,11.23
2023-03-24T07:27:19.863Z,10.48
2023-03-24T07:28:22.496Z,10.50
2023-03-24T07:29:25.210Z,11.18
2023-03-24T07:30:49.412Z,10.82
2023-03-24T07:31:58.659Z,9.60
2023-03-24T07:33:02.222Z,10.00
2023-03-24T07:34:08.341Z,10.88
2023-03-24T07:35:12.875Z,10.50
2023-03-24T07:36:15.265Z,10.13
2023-03-24T07:37:17.573Z,10.45
2023-03-24T07:38:20.423Z,9.65
2023-03-24T07:39:26.237Z,10.20
2023-03-24T07:40:30.190Z,10.50
2023-03-24T07:41:32.624Z,10.43
2023-03-24T07:42:39.878Z,10.18
2023-03-24T07:44:04.804Z,10.70
2023-03-24T07:45:15.728Z,11.27
2023-03-24T07:46:18.229Z,8.20
2023-03-24T07:47:21.289Z,5.47
2023-03-24T07:48:23.736Z,11.63
2023-03-24T07:49:27.381Z,10.02
2023-03-24T07:50:42.444Z,6.60
2023-03-24T07:52:06.491Z,4.35
2023-03-24T07:53:14.857Z,4.90
2023-03-24T07:54:17.540Z,5.15
2023-03-24T07:55:23.970Z,4.45
2023-03-24T07:56:30.711Z,5.65
2023-03-24T07:57:37.315Z,6.05
2023-03-24T07:58:42.909Z,7.10
2023-03-24T07:59:54.705Z,7.80
2023-03-24T08:01:17.314Z,7.75
2023-03-24T08:02:23.374Z,6.82
2023-03-24T08:03:32.271Z,7.88
2023-03-24T08:04:56.607Z,7.57
2023-03-24T08:06:17.788Z,7.80
2023-03-24T08:07:26.870Z,7.13
2023-03-24T08:08:31.184Z,7.50
2023-03-24T08:09:33.630Z,7.57
2023-03-24T08:10:37.049Z,7.10
2023-03-24T08:11:42.012Z,6.13
2023-03-24T08:12:44.780Z,4.68
2023-03-24T08:13:47.734Z,3.92
2023-03-24T08:14:50.309Z,3.40
2023-03-24T08:15:53.480Z,2.70
2023-03-24T08:16:56.059Z,2.75
2023-03-24T08:17:59.159Z,2.78
2023-03-24T08:19:01.793Z,3.03
2023-03-24T08:20:08.366Z,2.65
2023-03-24T08:21:11.477Z,2.30
2023-03-24T08:22:14.105Z,2.38
2023-03-24T08:23:17.982Z,2.20
2023-03-24T08:24:20.332Z,2.67
2023-03-24T08:25:25.821Z,2.35
2023-03-24T08:26:30.783Z,2.22
2023-03-24T08:27:33.237Z,2.25
2023-03-24T08:28:35.741Z,2.05
2023-03-24T08:29:38.171Z,1.80
2023-03-24T08:30:43.531Z,1.92
2023-03-24T08:31:46.388Z,1.88
2023-03-24T08:32:54.058Z,1.95
2023-03-24T08:33:56.324Z,2.00
2023-03-24T08:34:58.845Z,1.60
2023-03-24T08:36:01.482Z,1.90
2023-03-24T08:37:04.237Z,1.88
2023-03-24T08:38:08.049Z,1.83
2023-03-24T08:39:10.516Z,1.48
2023-03-24T08:40:20.322Z,1.65
2023-03-24T08:41:30.634Z,1.65
2023-03-24T08:42:33.039Z,1.40
2023-03-24T08:43:37.292Z,1.60
2023-03-24T08:44:39.581Z,1.63
2023-03-24T08:45:42.145Z,1.10
2023-03-24T08:46:44.674Z,1.52
2023-03-24T08:47:49.323Z,1.20
2023-03-24T08:48:51.760Z,1.17
2023-03-24T08:49:57.976Z,1.30
2023-03-24T08:51:09.259Z,1.23
2023-03-24T08:52:11.674Z,1.30
2023-03-24T08:53:14.675Z,1.17
2023-03-24T08:54:17.375Z,1.20
2023-03-24T08:55:21.013Z,1.38
2023-03-24T08:56:23.992Z,1.10
2023-03-24T08:57:26.824Z,1.05
2023-03-24T08:58:29.456Z,2.25
2023-03-24T08:59:31.815Z,5.43
2023-03-24T09:00:34.526Z,6.70
2023-03-24T09:01:36.944Z,7.07
2023-03-24T09:02:39.560Z,9.27
2023-03-24T09:03:41.866Z,13.25
2023-03-24T09:04:45.839Z,14.15
2023-03-24T09:05:49.115Z,18.73
2023-03-24T09:06:53.564Z,14.57
2023-03-24T09:07:55.990Z,13.02
2023-03-24T09:08:58.736Z,12.63
2023-03-24T09:10:01.539Z,11.23
2023-03-24T09:11:05.163Z,11.05
2023-03-24T09:12:07.818Z,11.88
2023-03-24T09:13:10.405Z,12.07
2023-03-24T09:14:12.987Z,9.88
2023-03-24T09:15:15.975Z,11.10
2023-03-24T09:16:18.669Z,10.73
2023-03-24T09:17:21.558Z,10.52
2023-03-24T09:18:24.541Z,10.43
2023-03-24T09:19:26.887Z,11.23
2023-03-24T09:20:29.330Z,11.27
2023-03-24T09:21:31.781Z,9.82
2023-03-24T09:22:36.945Z,8.60
2023-03-24T09:23:39.365Z,8.27
2023-03-24T09:24:41.712Z,7.38
2023-03-24T09:25:45.112Z,7.18
2023-03-24T09:26:47.578Z,7.03
2023-03-24T09:27:50.410Z,6.55
2023-03-24T09:28:52.748Z,7.03
2023-03-24T09:29:55.042Z,6.65
2023-03-24T09:31:02.855Z,6.38
2023-03-24T09:32:05.306Z,7.85
2023-03-24T09:33:07.782Z,9.13
2023-03-24T09:34:10.368Z,9.23
2023-03-24T09:35:13.554Z,11.35
2023-03-24T09:36:15.904Z,12.20
2023-03-24T09:37:18.371Z,13.27
2023-03-24T09:38:21.401Z,10.23
2023-03-24T09:39:23.791Z,10.05
2023-03-24T09:40:29.503Z,9.82
2023-03-24T09:41:34.242Z,9.23
2023-03-24T09:42:40.834Z,7.82
2023-03-24T09:43:54.780Z,8.43
2023-03-24T09:44:59.114Z,11.18
2023-03-24T09:46:04.542Z,10.82
2023-03-24T09:47:18.940Z,12.43
2023-03-24T09:48:42.518Z,11.65
2023-03-24T09:49:46.378Z,11.43
2023-03-24T09:51:08.675Z,12.43
2023-03-24T09:52:13.226Z,11.05
2023-03-24T09:53:54.555Z,12.00
2023-03-24T09:54:58.654Z,11.25
2023-03-24T09:56:10.498Z,12.35
2023-03-24T09:57:24.632Z,12.57
2023-03-24T09:58:31.312Z,9.40
2023-03-24T09:59:39.749Z,10.88
2023-03-24T10:00:44.720Z,11.85
2023-03-24T10:01:48.142Z,12.25
2023-03-24T10:02:53.024Z,12.48
2023-03-24T10:03:59.099Z,11.63
2023-03-24T10:05:01.622Z,12.73
2023-03-24T10:06:13.939Z,10.90
2023-03-24T10:07:31.591Z,10.50
2023-03-24T10:08:42.234Z,11.30
2023-03-24T10:09:50.690Z,10.10
2023-03-24T10:11:29.445Z,10.98
2023-03-24T10:12:39.911Z,10.90
2023-03-24T10:13:55.772Z,10.47
2023-03-24T10:15:30.968Z,10.35
2023-03-24T10:16:54.301Z,9.90
2023-03-24T10:18:05.755Z,9.80
2023-03-24T10:20:43.462Z,11.18
2023-03-24T10:22:00.617Z,11.73
2023-03-24T10:23:41.361Z,11.23
2023-03-24T10:25:06.835Z,10.43
2023-03-24T10:26:33.042Z,10.68
2023-03-24T10:27:56.059Z,11.05
2023-03-24T10:29:07.780Z,10.18
2023-03-24T10:30:17.335Z,10.23
2023-03-24T10:31:27.772Z,10.55
2023-03-24T10:32:34.252Z,10.47
2023-03-24T10:33:40.281Z,11.10
2023-03-24T10:34:46.668Z,11.48
2023-03-24T10:35:55.023Z,10.00
2023-03-24T10:36:59.608Z,10.98
2023-03-24T10:38:11.534Z,11.10
2023-03-24T10:39:21.154Z,10.02
2023-03-24T10:40:36.194Z,9.45
2023-03-24T10:41:41.003Z,9.68
2023-03-24T10:42:45.005Z,10.32
2023-03-24T10:43:48.934Z,9.45
2023-03-24T10:44:52.435Z,12.10
2023-03-24T10:45:57.385Z,9.25
2023-03-24T10:47:04.800Z,10.55
2023-03-24T10:48:09.211Z,10.02
2023-03-24T10:49:14.862Z,11.38
2023-03-24T10:50:17.283Z,9.75
2023-03-24T10:51:27.613Z,9.73
2023-03-24T10:52:41.198Z,10.00
2023-03-24T10:53:47.845Z,9.40
2023-03-24T10:54:59.318Z,10.43
2023-03-24T10:56:01.969Z,9.32
2023-03-24T10:57:15.577Z,9.95
2023-03-24T10:58:20.552Z,9.32
2023-03-24T10:59:59.386Z,9.13
2023-03-24T11:01:03.199Z,9.30
2023-03-24T11:02:30.628Z,9.27
2023-03-24T11:03:37.178Z,9.30
2023-03-24T11:04:43.640Z,10.05
2023-03-24T11:05:46.480Z,8.55
2023-03-24T11:07:18.970Z,8.35
2023-03-24T11:08:28.557Z,7.75
2023-03-24T11:09:40.701Z,6.82
2023-03-24T11:10:43.536Z,7.63
2023-03-24T11:11:46.217Z,6.75
2023-03-24T11:12:54.521Z,5.43
2023-03-24T11:14:03.288Z,4.57
2023-03-24T11:15:23.807Z,4.05
2023-03-24T11:16:37.910Z,3.75
2023-03-24T11:17:40.285Z,4.05
2023-03-24T11:19:01.969Z,3.35
2023-03-24T11:20:16.034Z,3.30
2023-03-24T11:21:20.508Z,2.95
2023-03-24T11:22:23.355Z,3.60
2023-03-24T11:23:30.868Z,3.67
2023-03-24T11:24:37.558Z,3.65
2023-03-24T11:25:42.370Z,2.78
2023-03-24T11:27:03.189Z,3.25
2023-03-24T11:28:24.825Z,2.67
2023-03-24T11:29:28.393Z,2.70
2023-03-24T11:30:50.308Z,2.58
2023-03-24T11:31:58.610Z,3.13
2023-03-24T11:33:02.665Z,2.80
2023-03-24T11:34:19.897Z,2.75
2023-03-24T11:35:29.433Z,2.53
2023-03-24T11:36:45.412Z,2.50
2023-03-24T11:37:49.067Z,2.50
2023-03-24T11:39:08.276Z,2.13
2023-03-24T11:40:13.774Z,2.22
2023-03-24T11:41:21.224Z,2.30
2023-03-24T11:42:27.603Z,2.00
2023-03-24T11:43:30.783Z,2.20
2023-03-24T11:44:44.877Z,1.80
2023-03-24T11:46:08.273Z,1.83
2023-03-24T11:47:16.222Z,1.63
2023-03-24T11:48:33.683Z,1.65
2023-03-24T11:49:46.735Z,1.30
2023-03-24T11:50:49.551Z,1.65
2023-03-24T11:51:54.678Z,1.55
2023-03-24T11:53:17.061Z,1.92
2023-03-24T11:54:22.191Z,1.70
2023-03-24T11:55:38.201Z,1.52
2023-03-24T11:56:44.377Z,1.00
2023-03-24T11:58:01.972Z,1.20
2023-03-24T11:59:14.620Z,1.45
2023-03-24T12:00:22.966Z,1.20
2023-03-24T12:01:37.122Z,1.63
2023-03-24T12:02:55.280Z,1.40
2023-03-24T12:04:25.709Z,1.20
2023-03-24T12:06:01.628Z,1.20
2023-03-24T12:07:25.510Z,1.10
2023-03-24T12:08:30.433Z,1.30
2023-03-24T12:09:42.523Z,1.10
2023-03-24T12:11:08.363Z,1.98
2023-03-24T12:12:42.395Z,1.08
2023-03-24T12:13:51.776Z,1.20
2023-03-24T12:15:27.407Z,1.77
2023-03-24T12:16:43.524Z,1.42
2023-03-24T12:18:00.845Z,1.77
2023-03-24T12:19:17.015Z,1.58
2023-03-24T12:20:40.134Z,1.13
2023-03-24T12:21:57.660Z,1.25
2023-03-24T12:23:12.526Z,1.40
2023-03-24T12:24:48.376Z,1.45
2023-03-24T12:26:07.526Z,1.48
2023-03-24T12:27:24.873Z,1.50
2023-03-24T12:28:32.802Z,2.13
2023-03-24T12:29:38.249Z,1.55
2023-03-24T12:31:09.096Z,1.52
2023-03-24T12:32:41.408Z,1.60
2023-03-24T12:33:53.544Z,1.83
2023-03-24T12:35:21.499Z,1.40
2023-03-24T12:36:41.714Z,1.52
2023-03-24T12:37:49.458Z,1.50
2023-03-24T12:38:51.816Z,1.40
2023-03-24T12:40:30.916Z,1.63
2023-03-24T12:41:42.612Z,2.05
2023-03-24T12:42:46.705Z,1.40
2023-03-24T12:43:57.887Z,1.75
2023-03-24T12:45:00.226Z,1.60
2023-03-24T12:46:40.618Z,1.38
2023-03-24T12:48:04.579Z,1.40
2023-03-24T12:49:19.654Z,1.80
2023-03-24T12:50:31.162Z,1.40
2023-03-24T12:52:07.234Z,2.00
2023-03-24T12:53:41.654Z,1.00
2023-03-24T12:54:46.674Z,1.40
2023-03-24T12:56:04.157Z,1.25
2023-03-24T12:57:12.359Z,1.33
2023-03-24T12:58:19.487Z,2.10
2023-03-24T12:59:39.164Z,1.80
2023-03-24T13:01:03.986Z,1.77
2023-03-24T13:02:25.207Z,2.53
2023-03-24T13:03:38.657Z,1.92
2023-03-24T13:04:44.229Z,1.67
2023-03-24T13:05:53.782Z,2.15
2023-03-24T13:07:06.900Z,1.70
2023-03-24T13:08:22.827Z,1.48
2023-03-24T13:09:46.699Z,1.42
2023-03-24T13:10:54.379Z,1.90
2023-03-24T13:12:24.216Z,1.33
2023-03-24T13:13:32.996Z,1.55
2023-03-24T13:14:52.101Z,1.63
2023-03-24T13:16:15.420Z,1.60
2023-03-24T13:17:37.066Z,1.85
2023-03-24T13:19:44.251Z,1.85
2023-03-24T13:20:52.276Z,1.60
2023-03-24T13:21:56.087Z,1.95
2023-03-24T13:23:19.456Z,1.40
2023-03-24T13:24:22.469Z,1.25
2023-03-24T13:25:27.398Z,1.40
2023-03-24T13:27:09.456Z,1.75
2023-03-24T13:28:17.529Z,1.30
2023-03-24T13:29:49.114Z,1.33
2023-03-24T13:30:52.631Z,1.27
2023-03-24T13:32:09.363Z,1.25
2023-03-24T13:33:21.909Z,0.82
2023-03-24T13:34:33.107Z,1.00
2023-03-24T13:36:11.062Z,1.27
2023-03-24T13:37:35.941Z,0.80
2023-03-24T13:38:50.087Z,0.80
2023-03-24T13:39:57.832Z,0.90
2023-03-24T13:41:04.887Z,0.95
2023-03-24T13:42:07.758Z,0.88
2023-03-24T13:43:19.069Z,1.08
2023-03-24T13:44:35.982Z,1.00
2023-03-24T13:45:51.618Z,1.30
2023-03-24T13:47:05.684Z,0.93
2023-03-24T13:48:10.866Z,1.10
2023-03-24T13:49:15.424Z,0.93
2023-03-24T13:50:18.019Z,1.00
2023-03-24T13:51:31.992Z,1.02
2023-03-24T13:52:44.956Z,1.00
2023-03-24T13:54:03.496Z,0.65
2023-03-24T13:55:36.895Z,0.57
2023-03-24T13:56:52.796Z,0.90
2023-03-24T13:58:34.307Z,0.95
2023-03-24T14:00:11.808Z,0.38
2023-03-24T14:01:31.576Z,0.90
2023-03-24T14:02:47.981Z,0.73
2023-03-24T14:04:18.319Z,0.70
2023-03-24T14:05:26.280Z,0.65
2023-03-24T14:07:23.503Z,1.00
2023-03-24T14:08:47.446Z,0.95
2023-03-24T14:10:22.777Z,0.73
2023-03-24T14:11:34.421Z,0.80
2023-03-24T14:13:14.644Z,0.82
2023-03-24T14:14:23.193Z,0.68
2023-03-24T14:15:29.007Z,0.63
2023-03-24T14:16:57.420Z,0.90
2023-03-24T14:18:24.801Z,0.55
2023-03-24T14:19:41.877Z,0.70
2023-03-24T14:20:56.412Z,0.98
2023-03-24T14:22:10.888Z,0.45
2023-03-24T14:23:31.637Z,0.52
2023-03-24T14:24:35.367Z,0.65
2023-03-24T14:25:37.841Z,0.70
2023-03-24T14:26:40.965Z,0.77
2023-03-24T14:27:46.899Z,0.68
2023-03-24T14:28:51.550Z,0.60
2023-03-24T14:29:54.289Z,0.90
2023-03-24T14:31:13.253Z,1.00
2023-03-24T14:32:22.645Z,0.90
2023-03-24T14:33:26.583Z,0.80
2023-03-24T14:34:29.878Z,0.80
2023-03-24T14:35:36.890Z,1.15
2023-03-24T14:36:44.667Z,0.93
2023-03-24T14:37:57.492Z,0.65
2023-03-24T14:39:24.636Z,0.90
2023-03-24T14:40:35.482Z,0.80
2023-03-24T14:41:41.222Z,0.77
2023-03-24T14:42:43.549Z,0.65
2023-03-24T14:43:46.005Z,0.80
2023-03-24T14:44:49.389Z,0.85
2023-03-24T14:46:00.243Z,0.85
2023-03-24T14:47:03.477Z,0.95
2023-03-24T14:48:21.257Z,0.90
2023-03-24T14:49:28.823Z,0.90
2023-03-24T14:50:32.305Z,0.77
2023-03-24T14:52:10.604Z,0.80
2023-03-24T14:53:19.543Z,0.77
2023-03-24T14:54:24.654Z,1.23
2023-03-24T14:55:27.794Z,0.55
2023-03-24T14:56:40.250Z,0.50
2023-03-24T14:57:45.605Z,0.70
2023-03-24T14:58:53.694Z,0.60
2023-03-24T15:00:23.312Z,0.82
2023-03-24T15:01:30.408Z,0.50
2023-03-24T15:02:39.382Z,0.60
2023-03-24T15:03:58.478Z,0.60
2023-03-24T15:05:31.707Z,0.70
2023-03-24T15:06:46.920Z,0.70
2023-03-24T15:08:11.530Z,0.52
2023-03-24T15:09:17.340Z,5.72
2023-03-24T15:10:20.132Z,5.63
2023-03-24T15:11:25.957Z,5.45
2023-03-24T15:12:28.451Z,3.72
2023-03-24T15:13:45.496Z,5.32
2023-03-24T15:14:47.862Z,6.07
2023-03-24T15:15:50.392Z,5.70
2023-03-24T15:16:54.214Z,5.70
2023-03-24T15:17:56.598Z,5.95
2023-03-24T15:19:09.746Z,6.22
2023-03-24T15:20:22.341Z,4.95
2023-03-24T15:21:39.705Z,4.07
2023-03-24T15:22:42.745Z,3.90
2023-03-24T15:23:48.898Z,3.10
2023-03-24T15:24:52.119Z,3.35
2023-03-24T15:25:56.274Z,3.28
2023-03-24T15:27:07.614Z,3.42
2023-03-24T15:28:21.997Z,3.10
2023-03-24T15:29:25.550Z,2.25
2023-03-24T15:30:28.642Z,2.90
2023-03-24T15:31:31.318Z,3.28
2023-03-24T15:32:38.757Z,2.08
2023-03-24T15:33:42.913Z,2.50
2023-03-24T15:35:16.148Z,2.50
2023-03-24T15:36:22.936Z,2.58
2023-03-24T15:37:31.834Z,2.20
2023-03-24T15:38:34.147Z,2.25
2023-03-24T15:39:38.868Z,2.75
2023-03-24T15:40:41.380Z,2.53